Time;durP1;ratioP1;P1;durP2;ratioP2;P2;SDS_P1;SDS_P2;PMS_P1;PMS_P2;Temp;Humidity;BMP_temperature;BMP_pressure;BME280_temperature;BME280_humidity;BME280_pressure;Samples;Min_cycle;Max_cycle;Signal;HPM_P1;HPM_P2
2022/05/22 00:01:53;;;;;;;24.20;8.43;;;11.10;98.20;;;;;;5001814;28;20034;-75
2022/05/22 00:04:19;;;;;;;21.80;8.75;;;10.90;97.90;;;;;;5006018;28;20076;-75
2022/05/22 00:06:45;;;;;;;16.85;8.20;;;10.90;98.40;;;;;;5001700;28;20026;-74
2022/05/22 00:09:11;;;;;;;21.30;8.48;;;10.90;98.70;;;;;;5003283;28;20022;-75
2022/05/22 00:11:36;;;;;;;19.20;9.55;;;10.90;98.70;;;;;;5006639;28;20093;-75
2022/05/22 00:14:02;;;;;;;25.20;9.63;;;10.80;98.70;;;;;;5019097;28;20048;-75
2022/05/22 00:16:37;;;;;;;21.27;9.25;;;10.80;98.70;;;;;;5006429;28;20460;-76
2022/05/22 00:19:04;;;;;;;18.77;8.57;;;10.80;99.00;;;;;;5005947;28;20116;-75
2022/05/22 00:21:31;;;;;;;18.98;8.82;;;10.80;99.00;;;;;;5026946;28;20717;-75
2022/05/22 00:23:56;;;;;;;23.92;10.63;;;10.70;98.90;;;;;;5034553;28;20025;-76
2022/05/22 00:26:22;;;;;;;25.48;10.45;;;10.70;99.20;;;;;;5006586;28;20079;-75
2022/05/22 00:28:47;;;;;;;17.85;8.88;;;10.80;99.30;;;;;;5006825;28;20076;-75
2022/05/22 00:31:13;;;;;;;18.35;8.07;;;10.80;99.50;;;;;;5006432;28;20050;-75
2022/05/22 00:33:39;;;;;;;17.00;8.35;;;10.80;99.20;;;;;;5005633;28;20369;-76
2022/05/22 00:36:06;;;;;;;22.23;9.35;;;10.80;99.20;;;;;;5036502;28;20124;-75
2022/05/22 00:38:32;;;;;;;18.70;9.38;;;10.80;99.00;;;;;;5004962;28;20453;-75
2022/05/22 00:40:58;;;;;;;21.25;10.73;;;10.80;99.00;;;;;;5007466;28;20044;-74
2022/05/22 00:43:29;;;;;;;25.20;10.93;;;10.80;99.10;;;;;;5018280;28;20038;-75
2022/05/22 00:45:55;;;;;;;20.23;9.85;;;10.70;99.20;;;;;;5002006;28;20464;-75
2022/05/22 00:48:21;;;;;;;19.13;9.88;;;10.70;99.30;;;;;;5026232;28;20508;-75
2022/05/22 00:50:48;;;;;;;19.80;10.13;;;10.80;99.70;;;;;;5001206;28;20092;-75
2022/05/22 00:53:14;;;;;;;19.00;8.98;;;10.80;99.50;;;;;;5034270;28;20044;-75
2022/05/22 00:55:40;;;;;;;16.10;8.57;;;10.90;99.40;;;;;;5003162;28;20097;-75
2022/05/22 00:58:12;;;;;;;17.25;8.43;;;10.90;99.50;;;;;;5004817;28;20113;-75
2022/05/22 01:00:37;;;;;;;14.65;7.93;;;10.90;99.30;;;;;;5004683;28;20025;-76
2022/05/22 01:05:51;;;;;;;16.92;8.13;;;10.90;99.20;;;;;;5004456;28;20040;-75
2022/05/22 01:08:17;;;;;;;19.08;8.35;;;11.00;99.20;;;;;;5009927;28;20038;-75
2022/05/22 01:10:49;;;;;;;17.20;7.65;;;11.00;99.40;;;;;;5010228;28;20277;-75
2022/05/22 01:13:19;;;;;;;16.58;8.40;;;10.90;98.60;;;;;;5023741;28;20032;-75
2022/05/22 01:15:45;;;;;;;18.90;8.82;;;10.90;98.70;;;;;;5007557;28;20148;-75
2022/05/22 01:18:11;;;;;;;17.30;8.93;;;10.80;98.80;;;;;;5021479;28;20187;-77
2022/05/22 01:20:37;;;;;;;17.67;8.55;;;10.80;99.10;;;;;;5009109;28;22337;-75
2022/05/22 01:23:03;;;;;;;16.58;8.80;;;10.80;99.00;;;;;;5006323;28;20118;-75
2022/05/22 01:25:29;;;;;;;17.75;8.35;;;10.70;98.80;;;;;;5024937;28;20357;-75
2022/05/22 01:27:55;;;;;;;16.23;8.40;;;10.60;98.90;;;;;;5006610;28;20052;-75
2022/05/22 01:30:25;;;;;;;18.73;8.15;;;10.60;99.10;;;;;;5004457;28;20046;-75
2022/05/22 01:32:52;;;;;;;22.92;9.27;;;10.60;99.20;;;;;;5006067;28;20037;-76
2022/05/22 01:35:22;;;;;;;23.58;9.50;;;10.60;99.10;;;;;;5024815;28;20038;-76
2022/05/22 01:37:48;;;;;;;21.15;9.55;;;10.60;99.10;;;;;;5006970;28;20545;-75
2022/05/22 01:40:16;;;;;;;26.95;10.98;;;10.60;99.10;;;;;;5007746;28;20455;-74
2022/05/22 01:42:42;;;;;;;21.33;7.60;;;10.50;99.00;;;;;;5008220;28;20114;-74
2022/05/22 01:45:11;;;;;;;16.80;8.52;;;10.50;98.90;;;;;;5006236;28;20022;-74
2022/05/22 01:47:38;;;;;;;15.20;8.50;;;10.50;98.80;;;;;;5008821;28;20073;-74
2022/05/22 01:50:05;;;;;;;26.15;10.63;;;10.40;98.90;;;;;;5008286;28;20037;-74
2022/05/22 01:52:31;;;;;;;26.23;10.77;;;10.30;99.00;;;;;;5017708;28;20035;-74
2022/05/22 01:54:57;;;;;;;25.17;11.00;;;10.30;99.20;;;;;;5007919;28;20111;-74
2022/05/22 01:57:22;;;;;;;23.05;10.35;;;10.30;99.60;;;;;;5007868;28;20033;-74
2022/05/22 01:59:48;;;;;;;22.02;11.10;;;10.30;99.50;;;;;;5007410;28;20042;-74
2022/05/22 02:02:14;;;;;;;23.40;9.70;;;10.20;99.40;;;;;;5008871;28;20456;-74
2022/05/22 02:04:39;;;;;;;27.60;12.15;;;10.20;99.50;;;;;;5007405;28;20498;-75
2022/05/22 02:09:50;;;;;;;26.33;11.90;;;10.20;99.60;;;;;;5006741;28;20534;-74
2022/05/22 02:12:15;;;;;;;27.45;12.27;;;10.20;99.50;;;;;;5005148;28;20112;-75
2022/05/22 02:14:41;;;;;;;27.88;11.63;;;10.00;99.20;;;;;;5007198;28;20109;-74
2022/05/22 02:17:07;;;;;;;25.75;11.48;;;10.00;99.60;;;;;;5009214;28;20034;-74
2022/05/22 02:19:33;;;;;;;25.85;11.50;;;10.10;99.80;;;;;;5008150;28;20453;-77
2022/05/22 02:21:58;;;;;;;26.10;12.10;;;10.10;99.90;;;;;;5008151;28;20053;-74
2022/05/22 02:24:24;;;;;;;24.10;11.75;;;10.10;99.80;;;;;;5010274;28;20034;-74
2022/05/22 02:26:50;;;;;;;25.95;11.05;;;10.10;99.60;;;;;;5005319;28;20034;-75
2022/05/22 02:29:16;;;;;;;24.75;10.82;;;10.10;99.70;;;;;;5008933;28;20597;-74
2022/05/22 02:31:42;;;;;;;20.90;10.40;;;10.10;99.60;;;;;;5024530;28;20037;-74
2022/05/22 02:34:07;;;;;;;21.98;10.55;;;10.00;99.50;;;;;;5007251;28;20034;-76
2022/05/22 02:36:33;;;;;;;26.45;12.15;;;10.00;99.60;;;;;;5008901;28;20053;-75
2022/05/22 02:38:58;;;;;;;27.08;11.93;;;10.00;99.70;;;;;;5008417;28;20037;-75
2022/05/22 02:41:25;;;;;;;25.80;11.43;;;9.90;99.70;;;;;;5007510;28;20030;-75
2022/05/22 02:43:52;;;;;;;26.10;12.85;;;9.90;99.70;;;;;;5022484;28;20127;-74
2022/05/22 02:46:19;;;;;;;24.73;11.82;;;9.80;99.40;;;;;;5008483;28;20038;-74
2022/05/22 02:48:45;;;;;;;32.53;13.38;;;9.70;99.50;;;;;;5005126;28;20049;-75
2022/05/22 02:51:16;;;;;;;29.77;12.82;;;9.70;99.60;;;;;;5035865;28;20034;-74
2022/05/22 02:53:42;;;;;;;24.02;11.07;;;9.60;99.60;;;;;;5004969;28;20036;-74
2022/05/22 02:56:16;;;;;;;25.88;11.45;;;9.60;99.80;;;;;;5005447;28;20033;-74
2022/05/22 02:58:41;;;;;;;25.23;11.02;;;9.50;99.50;;;;;;5009077;28;20045;-74
2022/05/22 03:01:07;;;;;;;26.65;12.43;;;9.40;99.70;;;;;;5006616;28;20026;-74
2022/05/22 03:03:33;;;;;;;29.42;12.30;;;9.40;99.90;;;;;;5006626;28;20036;-74
2022/05/22 03:08:45;;;;;;;22.10;10.50;;;9.40;99.90;;;;;;5008210;28;20041;-74
2022/05/22 03:11:11;;;;;;;22.27;9.65;;;9.40;99.90;;;;;;5006506;28;20030;-75
2022/05/22 03:13:37;;;;;;;21.70;10.32;;;9.50;99.90;;;;;;4997136;28;20034;-76
2022/05/22 03:16:03;;;;;;;21.15;10.55;;;9.50;99.90;;;;;;5007541;28;20460;-75
2022/05/22 03:18:29;;;;;;;17.15;9.35;;;9.60;99.90;;;;;;5000185;28;20033;-74
2022/05/22 03:20:55;;;;;;;19.35;9.60;;;9.60;99.90;;;;;;5004845;28;20036;-75
2022/05/22 03:23:20;;;;;;;17.58;9.50;;;9.60;99.90;;;;;;5007443;28;20037;-75
2022/05/22 03:25:49;;;;;;;19.90;9.65;;;9.60;99.90;;;;;;5004212;28;20022;-75
2022/05/22 03:28:15;;;;;;;14.98;8.82;;;9.60;99.90;;;;;;5005339;28;20044;-75
2022/05/22 03:30:41;;;;;;;18.67;10.68;;;9.50;99.90;;;;;;5004803;28;20142;-74
2022/05/22 03:33:06;;;;;;;17.75;9.52;;;9.50;99.80;;;;;;5007135;28;20912;-76
2022/05/22 03:35:32;;;;;;;15.82;8.20;;;9.40;99.90;;;;;;5003631;28;20022;-74
2022/05/22 03:37:58;;;;;;;15.60;8.65;;;9.40;99.90;;;;;;5031831;28;20119;-74
2022/05/22 03:40:24;;;;;;;13.77;8.45;;;9.30;99.90;;;;;;5005513;28;20053;-74
2022/05/22 03:42:50;;;;;;;16.92;8.35;;;9.30;99.90;;;;;;5007475;28;20033;-74
2022/05/22 03:45:15;;;;;;;15.13;7.95;;;9.40;99.90;;;;;;5006130;28;20113;-75
2022/05/22 03:47:41;;;;;;;13.18;8.25;;;9.40;99.90;;;;;;5007684;28;20040;-75
2022/05/22 03:50:09;;;;;;;17.75;8.65;;;9.30;99.90;;;;;;5005924;28;20948;-75
2022/05/22 03:52:39;;;;;;;17.75;8.93;;;9.30;99.90;;;;;;5006541;28;20250;-75
2022/05/22 03:55:07;;;;;;;17.70;8.77;;;9.30;99.90;;;;;;5003661;28;20117;-75
2022/05/22 03:57:33;;;;;;;14.98;8.07;;;9.40;99.90;;;;;;5004876;28;20080;-75
2022/05/22 03:59:59;;;;;;;13.73;7.97;;;9.40;99.90;;;;;;5006298;28;20037;-74
2022/05/22 04:02:24;;;;;;;18.13;9.00;;;9.40;99.90;;;;;;5003826;28;20056;-75
2022/05/22 04:04:50;;;;;;;19.63;9.07;;;9.50;99.90;;;;;;5025279;28;20034;-75
2022/05/22 04:07:16;;;;;;;11.82;7.18;;;9.40;99.90;;;;;;5005145;28;20088;-75
2022/05/22 04:09:42;;;;;;;16.63;7.55;;;9.30;99.90;;;;;;5003487;28;20059;-75
2022/05/22 04:12:09;;;;;;;11.50;6.65;;;9.30;99.90;;;;;;5006202;28;20029;-75
2022/05/22 04:14:35;;;;;;;16.98;6.88;;;9.20;99.90;;;;;;5004130;28;20415;-74
2022/05/22 04:17:01;;;;;;;14.73;7.53;;;9.30;99.90;;;;;;5007434;28;20098;-75
2022/05/22 04:19:27;;;;;;;14.90;6.82;;;9.20;99.90;;;;;;5006554;28;20022;-75
2022/05/22 04:21:53;;;;;;;17.92;7.43;;;9.10;99.90;;;;;;5007715;28;20105;-75
2022/05/22 04:27:04;;;;;;;12.98;7.68;;;9.10;99.90;;;;;;4988796;28;20046;-76
2022/05/22 04:29:35;;;;;;;13.27;7.30;;;9.10;99.90;;;;;;4999039;28;20053;-75
2022/05/22 04:32:01;;;;;;;11.65;7.15;;;9.10;99.90;;;;;;5006108;28;20030;-76
2022/05/22 04:34:27;;;;;;;15.70;7.60;;;9.00;99.90;;;;;;5005318;28;20041;-76
2022/05/22 04:36:53;;;;;;;13.98;6.57;;;9.00;99.90;;;;;;5009364;28;20033;-75
2022/05/22 04:39:19;;;;;;;10.43;6.25;;;9.00;99.90;;;;;;5009498;28;20045;-75
2022/05/22 04:41:44;;;;;;;12.93;6.57;;;9.00;99.90;;;;;;5008980;28;20465;-75
2022/05/22 04:44:10;;;;;;;11.95;6.18;;;8.90;99.80;;;;;;5008849;28;20480;-75
2022/05/22 04:46:35;;;;;;;10.07;5.78;;;8.90;99.70;;;;;;5010467;28;20137;-77
2022/05/22 04:49:01;;;;;;;12.30;7.20;;;8.80;99.60;;;;;;5008350;28;20041;-76
2022/05/22 04:51:27;;;;;;;13.23;7.20;;;8.80;99.60;;;;;;5010228;28;20030;-76
2022/05/22 04:53:53;;;;;;;11.30;6.72;;;8.80;99.50;;;;;;5009075;28;20026;-76
2022/05/22 04:56:19;;;;;;;13.98;6.90;;;8.70;99.70;;;;;;5009728;28;20080;-75
2022/05/22 04:58:46;;;;;;;12.27;6.53;;;8.70;99.70;;;;;;5008599;28;20150;-76
2022/05/22 05:01:13;;;;;;;9.02;5.75;;;8.70;99.90;;;;;;5006761;28;20072;-75
2022/05/22 05:03:38;;;;;;;14.75;6.68;;;8.60;99.90;;;;;;5009285;28;20030;-76
2022/05/22 05:06:05;;;;;;;10.65;6.55;;;8.60;99.90;;;;;;5006266;28;20314;-76
2022/05/22 05:08:31;;;;;;;10.52;6.55;;;8.70;99.90;;;;;;5038479;28;20110;-76
2022/05/22 05:11:00;;;;;;;14.73;6.97;;;8.70;99.90;;;;;;5006871;28;20026;-76
2022/05/22 05:13:27;;;;;;;13.60;7.57;;;8.70;99.90;;;;;;5010336;28;20026;-76
2022/05/22 05:16:01;;;;;;;14.32;8.55;;;8.70;99.90;;;;;;5007807;28;20075;-76
2022/05/22 05:18:27;;;;;;;12.88;8.15;;;8.80;99.90;;;;;;5009104;28;20022;-76
2022/05/22 05:20:54;;;;;;;14.93;8.90;;;8.70;99.90;;;;;;5007934;28;20029;-75
2022/05/22 05:23:20;;;;;;;18.33;8.35;;;8.70;99.90;;;;;;5007788;28;20029;-74
2022/05/22 05:25:45;;;;;;;13.35;8.20;;;8.70;99.90;;;;;;5006443;28;20026;-75
2022/05/22 05:28:11;;;;;;;11.00;7.32;;;8.70;99.90;;;;;;5009282;28;20072;-76
2022/05/22 05:30:36;;;;;;;12.90;7.97;;;8.70;99.90;;;;;;5006466;28;20049;-75
2022/05/22 05:33:02;;;;;;;12.77;8.02;;;8.70;99.90;;;;;;5009583;28;20029;-76
2022/05/22 05:35:28;;;;;;;13.73;7.78;;;8.80;99.90;;;;;;5005886;28;20361;-76
2022/05/22 05:37:54;;;;;;;13.30;7.95;;;8.80;99.90;;;;;;5009410;28;20092;-75
2022/05/22 05:40:19;;;;;;;10.70;6.43;;;8.80;99.90;;;;;;5006872;28;20092;-76
2022/05/22 05:42:45;;;;;;;10.90;6.88;;;8.90;99.90;;;;;;5009795;28;20108;-75
2022/05/22 05:45:12;;;;;;;8.20;5.72;;;8.90;99.90;;;;;;5005631;28;20036;-75
2022/05/22 05:47:38;;;;;;;8.25;6.00;;;8.90;99.90;;;;;;5009753;28;20037;-75
2022/05/22 05:50:05;;;;;;;11.35;7.22;;;8.90;99.90;;;;;;5008705;28;20033;-77
2022/05/22 05:52:31;;;;;;;9.82;7.30;;;9.00;99.90;;;;;;5008001;28;20107;-74
2022/05/22 05:54:57;;;;;;;9.57;6.70;;;9.00;99.90;;;;;;5007416;28;20782;-75
2022/05/22 05:57:22;;;;;;;11.55;7.30;;;9.10;99.90;;;;;;5003126;28;20038;-75
2022/05/22 05:59:53;;;;;;;14.20;8.02;;;9.20;99.90;;;;;;5006464;28;20037;-76
2022/05/22 06:02:18;;;;;;;;;;;9.20;99.90;;;;;;5005888;28;20156;-75
2022/05/22 06:04:44;;;;;;;9.65;5.20;;;9.40;99.90;;;;;;5005038;28;20000;-75
2022/05/22 06:07:10;;;;;;;15.63;6.65;;;9.40;99.90;;;;;;5004703;28;20038;-75
2022/05/22 06:09:36;;;;;;;14.75;7.70;;;9.40;99.90;;;;;;5004376;28;20380;-75
2022/05/22 06:12:03;;;;;;;15.27;7.55;;;9.60;99.90;;;;;;5007849;28;20094;-75
2022/05/22 06:14:32;;;;;;;14.23;7.75;;;9.60;99.90;;;;;;5023189;28;20076;-75
2022/05/22 06:16:58;;;;;;;14.90;8.70;;;9.70;99.90;;;;;;5005631;28;20041;-75
2022/05/22 06:22:08;;;;;;;16.15;8.63;;;9.80;99.90;;;;;;5004017;28;20033;-75
2022/05/22 06:24:35;;;;;;;14.32;7.18;;;9.90;99.90;;;;;;5007131;28;20160;-76
2022/05/22 06:27:01;;;;;;;17.25;8.63;;;10.10;99.90;;;;;;5020935;28;20060;-75
2022/05/22 06:29:27;;;;;;;16.65;7.22;;;10.30;99.90;;;;;;5006980;28;20046;-76
2022/05/22 06:31:53;;;;;;;13.85;7.78;;;10.40;99.90;;;;;;5005015;28;20056;-76
2022/05/22 06:34:22;;;;;;;14.88;7.82;;;10.50;99.90;;;;;;5006172;28;20036;-74
2022/05/22 06:36:51;;;;;;;11.10;6.53;;;10.70;99.90;;;;;;5005705;28;20033;-74
2022/05/22 06:42:02;;;;;;;9.45;6.63;;;11.00;99.90;;;;;;5006574;28;20793;-74
2022/05/22 06:44:28;;;;;;;10.45;6.72;;;11.10;99.90;;;;;;5005777;28;20065;-74
2022/05/22 06:46:53;;;;;;;10.18;6.75;;;11.10;99.90;;;;;;5004956;28;20041;-74
2022/05/22 06:49:19;;;;;;;10.52;6.32;;;11.30;99.90;;;;;;5005557;28;20026;-74
2022/05/22 06:51:46;;;;;;;9.48;7.13;;;11.40;99.90;;;;;;5007624;28;20053;-75
2022/05/22 06:54:12;;;;;;;10.18;6.70;;;11.60;99.90;;;;;;4994622;28;20030;-74
2022/05/22 06:56:38;;;;;;;9.98;6.50;;;11.80;99.90;;;;;;5003116;28;20384;-74
2022/05/22 06:59:03;;;;;;;12.43;7.40;;;12.00;99.90;;;;;;5002430;28;20104;-76
2022/05/22 07:01:30;;;;;;;10.43;7.78;;;12.10;99.00;;;;;;5004144;28;20026;-75
2022/05/22 07:03:55;;;;;;;11.45;7.88;;;12.10;99.00;;;;;;5002171;28;20026;-75
2022/05/22 07:06:21;;;;;;;13.02;8.65;;;12.20;98.90;;;;;;5007347;28;20026;-75
2022/05/22 07:08:46;;;;;;;11.95;8.68;;;12.30;99.00;;;;;;5003556;28;20041;-75
2022/05/22 07:13:56;;;;;;;11.57;7.82;;;12.60;99.00;;;;;;5008553;28;20033;-74
2022/05/22 07:16:22;;;;;;;11.23;7.55;;;12.70;98.30;;;;;;5006908;28;20029;-75
2022/05/22 07:18:47;;;;;;;12.30;8.38;;;12.80;98.00;;;;;;4999764;28;20022;-75
2022/05/22 07:21:13;;;;;;;13.43;8.43;;;13.10;98.10;;;;;;5007797;28;20029;-74
2022/05/22 07:23:39;;;;;;;11.40;8.40;;;13.20;97.60;;;;;;5008835;28;20036;-75
2022/05/22 07:26:05;;;;;;;10.07;7.57;;;13.40;97.40;;;;;;5005647;28;20141;-74
2022/05/22 07:28:31;;;;;;;12.02;7.45;;;13.60;96.90;;;;;;5007375;28;20122;-76
2022/05/22 07:30:57;;;;;;;11.77;8.02;;;13.80;97.20;;;;;;5006530;28;20138;-75
2022/05/22 07:33:23;;;;;;;12.30;7.72;;;14.00;96.00;;;;;;5006637;28;20122;-75
2022/05/22 07:35:56;;;;;;;9.60;7.00;;;14.20;95.80;;;;;;5004700;28;20117;-77
2022/05/22 07:38:23;;;;;;;9.38;6.90;;;14.30;95.30;;;;;;4998872;28;20030;-76
2022/05/22 07:40:49;;;;;;;11.07;6.63;;;14.40;94.90;;;;;;5005450;28;20084;-75
2022/05/22 07:43:16;;;;;;;9.50;6.97;;;14.50;94.50;;;;;;5008117;28;20040;-75
2022/05/22 07:45:42;;;;;;;10.35;7.10;;;14.50;94.30;;;;;;5024028;28;20029;-75
2022/05/22 07:48:08;;;;;;;11.10;7.68;;;14.60;94.90;;;;;;5006118;28;20041;-75
2022/05/22 07:50:34;;;;;;;11.27;7.65;;;14.90;95.80;;;;;;5005361;28;20029;-77
2022/05/22 07:53:00;;;;;;;13.15;7.70;;;15.00;94.80;;;;;;5004448;28;20747;-75
2022/05/22 07:55:26;;;;;;;12.95;8.00;;;15.10;94.20;;;;;;5004114;28;20494;-74
2022/05/22 07:57:51;;;;;;;13.82;8.57;;;15.20;94.20;;;;;;5004386;28;20042;-75
2022/05/22 08:00:20;;;;;;;12.93;8.10;;;15.40;95.00;;;;;;5002693;28;20034;-75
2022/05/22 08:02:47;;;;;;;14.30;8.43;;;15.60;94.80;;;;;;5001078;28;20033;-74
2022/05/22 08:05:15;;;;;;;18.23;8.85;;;15.80;93.30;;;;;;5002566;28;20022;-77
2022/05/22 08:07:41;;;;;;;14.75;8.00;;;15.80;92.40;;;;;;5017526;28;20034;-74
2022/05/22 08:10:08;;;;;;;12.07;7.30;;;15.90;93.10;;;;;;5020854;28;20034;-76
2022/05/22 08:12:39;;;;;;;14.05;7.00;;;15.90;93.20;;;;;;5038726;28;20056;-74
2022/05/22 08:15:07;;;;;;;11.88;7.05;;;16.00;92.00;;;;;;5039162;28;20041;-77
2022/05/22 08:17:36;;;;;;;16.70;8.18;;;16.10;92.10;;;;;;5006028;28;20092;-76
2022/05/22 08:20:06;;;;;;;15.02;6.60;;;16.20;92.30;;;;;;5004090;28;20308;-75
2022/05/22 08:22:32;;;;;;;11.07;6.40;;;16.30;91.80;;;;;;5023046;28;20033;-75
2022/05/22 08:25:00;;;;;;;11.23;5.60;;;16.50;92.60;;;;;;5010895;28;20114;-75
2022/05/22 08:27:27;;;;;;;11.80;5.80;;;16.70;91.10;;;;;;5007444;28;20126;-74
2022/05/22 08:29:53;;;;;;;9.98;5.70;;;16.80;91.20;;;;;;5019465;28;20053;-74
2022/05/22 08:32:19;;;;;;;12.95;5.65;;;16.90;90.90;;;;;;5007242;28;20036;-75
2022/05/22 08:34:44;;;;;;;12.30;5.90;;;17.00;90.90;;;;;;5000323;28;20058;-77
2022/05/22 08:37:10;;;;;;;11.98;5.70;;;17.10;90.20;;;;;;5006876;28;20038;-76
2022/05/22 08:39:35;;;;;;;11.75;5.40;;;17.00;90.10;;;;;;5002401;28;20036;-76
2022/05/22 08:42:08;;;;;;;11.32;4.70;;;17.00;90.40;;;;;;5008348;28;20029;-76
2022/05/22 08:44:34;;;;;;;14.43;5.07;;;17.20;89.50;;;;;;5004911;28;20026;-76
2022/05/22 08:47:19;;;;;;;12.18;5.50;;;17.30;89.80;;;;;;5009011;28;20041;-77
2022/05/22 08:49:55;;;;;;;14.45;4.40;;;17.40;89.50;;;;;;5004373;28;20056;-74
2022/05/22 08:52:36;;;;;;;14.52;5.22;;;17.40;87.70;;;;;;5024880;28;20037;-76
2022/05/22 08:55:26;;;;;;;11.65;5.35;;;17.60;89.00;;;;;;5021831;28;20030;-75
2022/05/22 09:00:43;;;;;;;11.48;4.32;;;17.80;89.60;;;;;;5006804;28;20072;-75
2022/05/22 09:03:18;;;;;;;11.20;4.35;;;17.80;87.20;;;;;;5003350;28;20033;-75
2022/05/22 09:05:48;;;;;;;14.43;4.75;;;18.00;88.20;;;;;;5013548;28;20108;-75
2022/05/22 09:08:13;;;;;;;;;;;18.20;84.90;;;;;;5011106;28;20041;-76
2022/05/22 09:10:45;;;;;;;12.85;3.72;;;18.30;83.60;;;;;;5010516;28;19911;-77
2022/05/22 09:13:36;;;;;;;11.25;3.88;;;18.40;82.10;;;;;;5032768;28;20392;-75
2022/05/22 09:16:26;;;;;;;15.27;3.78;;;18.60;82.00;;;;;;5010454;28;20037;-75
2022/05/22 09:19:21;;;;;;;12.55;3.53;;;18.80;83.10;;;;;;4999954;28;20036;-79
2022/05/22 09:21:55;;;;;;;10.85;3.20;;;18.60;79.30;;;;;;5020594;28;20028;-76
2022/05/22 09:24:30;;;;;;;13.85;3.95;;;18.60;81.30;;;;;;4998952;28;20080;-75
2022/05/22 09:27:00;;;;;;;12.20;3.53;;;18.60;82.00;;;;;;5009345;28;20101;-77
2022/05/22 09:30:01;;;;;;;10.82;3.30;;;18.60;81.60;;;;;;5025850;28;20204;-76
2022/05/22 09:33:02;;;;;;;12.93;3.83;;;18.50;81.90;;;;;;5010837;28;20026;-77
2022/05/22 09:35:52;;;;;;;12.68;4.28;;;18.20;80.40;;;;;;5010275;28;20069;-76
2022/05/22 09:38:36;;;;;;;10.90;3.80;;;18.20;81.50;;;;;;5006832;28;20030;-79
2022/05/22 09:41:16;;;;;;;10.45;3.92;;;18.50;82.00;;;;;;5004362;28;20036;-76
2022/05/22 09:44:03;;;;;;;10.95;2.42;;;18.80;79.90;;;;;;4997032;28;20248;-75
2022/05/22 09:47:04;;;;;;;12.63;3.28;;;19.00;75.20;;;;;;5002153;28;20022;-76
2022/05/22 09:49:44;;;;;;;9.38;2.90;;;19.30;75.60;;;;;;5002290;28;20140;-76
2022/05/22 09:52:40;;;;;;;12.27;2.88;;;19.40;76.50;;;;;;4998995;28;20042;-77
2022/05/22 09:55:25;;;;;;;9.65;2.60;;;19.60;72.20;;;;;;5009591;28;20888;-75
2022/05/22 09:58:15;;;;;;;11.48;2.70;;;19.60;74.40;;;;;;5009288;28;20030;-76
2022/05/22 10:00:54;;;;;;;10.65;2.20;;;19.70;74.10;;;;;;5010526;28;20025;-76
2022/05/22 10:03:31;;;;;;;12.53;2.77;;;19.90;70.40;;;;;;5008531;28;20061;-76
2022/05/22 10:06:20;;;;;;;9.57;2.88;;;20.10;71.00;;;;;;5009917;28;20025;-75
2022/05/22 10:08:54;;;;;;;11.77;2.95;;;20.20;68.20;;;;;;5008848;28;20082;-77
2022/05/22 10:11:55;;;;;;;9.80;2.30;;;20.20;67.50;;;;;;5010336;28;20029;-76
2022/05/22 10:14:23;;;;;;;11.38;2.80;;;20.20;66.90;;;;;;5008981;28;20038;-77
2022/05/22 10:17:11;;;;;;;6.72;1.80;;;20.40;69.60;;;;;;5009488;28;20461;-74
2022/05/22 10:19:44;;;;;;;12.00;2.40;;;20.50;67.70;;;;;;5010150;28;20073;-77
2022/05/22 10:22:16;;;;;;;10.32;2.40;;;20.70;66.60;;;;;;5010328;28;20054;-76
2022/05/22 10:25:08;;;;;;;7.30;2.03;;;20.80;64.90;;;;;;5007070;28;20060;-76
2022/05/22 10:27:50;;;;;;;9.75;2.40;;;20.90;66.20;;;;;;5009847;28;20066;-77
2022/05/22 10:30:36;;;;;;;8.73;2.38;;;20.70;65.20;;;;;;5010077;28;20088;-76
2022/05/22 10:33:23;;;;;;;11.75;2.38;;;20.90;67.40;;;;;;5007680;28;20026;-76
2022/05/22 10:36:10;;;;;;;10.57;2.40;;;21.10;65.90;;;;;;5007438;28;20064;-77
2022/05/22 10:38:52;;;;;;;10.13;2.28;;;21.30;65.70;;;;;;5009717;28;20511;-78
2022/05/22 10:44:27;;;;;;;7.28;2.00;;;21.00;65.30;;;;;;5009551;28;20103;-76
2022/05/22 10:46:59;;;;;;;8.70;2.13;;;21.10;66.40;;;;;;5008057;28;20120;-77
2022/05/22 10:49:39;;;;;;;10.77;2.20;;;21.30;65.10;;;;;;5024623;28;20038;-76
2022/05/22 10:52:06;;;;;;;8.63;2.25;;;21.40;65.10;;;;;;5023301;28;20038;-77
2022/05/22 10:54:41;;;;;;;6.38;1.73;;;21.60;63.70;;;;;;5009556;28;20044;-77
2022/05/22 10:57:13;;;;;;;8.40;1.77;;;21.70;63.10;;;;;;5009486;28;20038;-77
2022/05/22 10:59:39;;;;;;;8.18;1.33;;;21.80;60.40;;;;;;5009412;28;20061;-77
2022/05/22 11:02:13;;;;;;;6.88;1.55;;;21.80;62.10;;;;;;5007289;28;20651;-77
2022/05/22 11:04:43;;;;;;;5.25;1.20;;;22.00;59.00;;;;;;4997129;28;20037;-76
2022/05/22 11:07:09;;;;;;;;;;;22.00;56.50;;;;;;5006227;28;20459;-75
2022/05/22 11:09:48;;;;;;;3.75;1.23;;;21.90;54.10;;;;;;5005989;28;19909;-75
2022/05/22 11:12:26;;;;;;;5.05;0.90;;;21.90;54.60;;;;;;5008689;28;20068;-76
2022/05/22 11:15:06;;;;;;;5.50;1.00;;;21.90;53.40;;;;;;5017369;28;20033;-75
2022/05/22 11:17:32;;;;;;;3.25;0.80;;;21.80;54.70;;;;;;5005921;28;20034;-75
2022/05/22 11:20:05;;;;;;;4.25;1.00;;;21.60;54.90;;;;;;4997487;28;20061;-76
2022/05/22 11:22:45;;;;;;;4.53;0.82;;;21.50;51.40;;;;;;5011175;28;20040;-77
2022/05/22 11:25:13;;;;;;;3.92;0.90;;;21.60;52.80;;;;;;5006840;28;20465;-77
2022/05/22 11:28:27;;;;;;;4.00;1.05;;;22.60;53.50;;;;;;5008348;28;20668;-76
2022/05/22 11:31:11;;;;;;;4.85;0.85;;;22.90;49.10;;;;;;4995505;28;20049;-77
2022/05/22 11:34:04;;;;;;;4.15;0.85;;;23.40;50.30;;;;;;5001179;28;20084;-77
2022/05/22 11:36:45;;;;;;;5.15;1.00;;;24.50;48.20;;;;;;5007508;28;20423;-76
2022/05/22 11:39:33;;;;;;;3.35;0.77;;;25.10;45.40;;;;;;5004297;28;20072;-76
2022/05/22 11:42:14;;;;;;;2.40;0.70;;;24.80;43.70;;;;;;5003245;28;20026;-76
2022/05/22 11:44:52;;;;;;;3.38;0.80;;;24.30;41.00;;;;;;4997959;28;20018;-75
2022/05/22 11:47:40;;;;;;;2.95;0.80;;;23.40;44.80;;;;;;5006753;28;20042;-76
2022/05/22 11:50:05;;;;;;;3.50;0.70;;;22.90;43.80;;;;;;4987866;28;20030;-76
2022/05/22 11:52:55;;;;;;;2.65;0.60;;;22.60;46.50;;;;;;5001279;28;20024;-77
2022/05/22 11:56:09;;;;;;;2.65;0.70;;;22.60;42.60;;;;;;5006621;28;20464;-77
2022/05/22 11:58:40;;;;;;;2.22;0.50;;;22.60;39.20;;;;;;4991494;28;20030;-76
2022/05/22 12:01:27;;;;;;;3.00;0.68;;;22.50;41.30;;;;;;5006131;28;20120;-76
2022/05/22 12:03:58;;;;;;;2.45;0.60;;;22.30;44.10;;;;;;5022319;28;20038;-77
2022/05/22 12:06:27;;;;;;;4.55;0.80;;;22.20;44.90;;;;;;5021853;28;20026;-76
2022/05/22 12:08:56;;;;;;;2.40;0.70;;;22.10;47.00;;;;;;5000676;28;20048;-75
2022/05/22 12:11:35;;;;;;;3.22;0.63;;;21.90;41.20;;;;;;5006809;28;20040;-76
2022/05/22 12:14:21;;;;;;;3.30;0.70;;;21.80;43.60;;;;;;5007848;28;20072;-76
2022/05/22 12:17:15;;;;;;;3.10;0.80;;;21.90;42.10;;;;;;5007342;28;20041;-76
2022/05/22 12:19:40;;;;;;;1.90;0.50;;;21.80;42.00;;;;;;4997850;28;20048;-76
2022/05/22 12:25:16;;;;;;;2.78;0.60;;;21.70;43.00;;;;;;5003142;28;20176;-76
2022/05/22 12:27:42;;;;;;;3.47;0.60;;;21.60;42.20;;;;;;5004027;28;20037;-76
2022/05/22 12:30:28;;;;;;;2.30;0.80;;;21.70;43.40;;;;;;5002952;28;20052;-77
2022/05/22 12:33:00;;;;;;;2.28;0.45;;;21.80;42.50;;;;;;5015856;28;20121;-76
2022/05/22 12:35:26;;;;;;;1.88;0.50;;;21.90;42.90;;;;;;5012725;28;20795;-76
2022/05/22 12:37:59;;;;;;;2.97;0.68;;;22.10;41.00;;;;;;5019105;28;20038;-76
2022/05/22 12:40:47;;;;;;;2.60;0.55;;;22.20;41.70;;;;;;5017171;28;20034;-76
2022/05/22 12:43:22;;;;;;;3.00;0.60;;;22.10;41.10;;;;;;5009056;28;20199;-77
2022/05/22 12:46:09;;;;;;;3.03;0.65;;;21.80;41.00;;;;;;5005563;28;20556;-76
2022/05/22 12:48:43;;;;;;;4.05;0.73;;;21.70;41.70;;;;;;5001443;28;20034;-75
2022/05/22 12:51:19;;;;;;;1.73;0.60;;;21.60;40.70;;;;;;5001753;28;20077;-77
2022/05/22 12:53:53;;;;;;;1.77;0.50;;;21.40;40.40;;;;;;4993667;28;20066;-76
2022/05/22 12:56:45;;;;;;;2.33;0.50;;;21.40;41.60;;;;;;4998268;28;20022;-78
2022/05/22 12:59:25;;;;;;;2.65;0.65;;;21.40;41.10;;;;;;5009915;28;20045;-76
2022/05/22 13:01:53;;;;;;;3.97;0.65;;;21.30;42.70;;;;;;5039148;28;20034;-76
2022/05/22 13:04:34;;;;;;;2.95;0.60;;;21.30;41.00;;;;;;5008731;28;20567;-77
2022/05/22 13:07:14;;;;;;;3.05;0.60;;;21.20;39.80;;;;;;5008107;28;20038;-76
2022/05/22 13:09:44;;;;;;;4.63;0.80;;;21.10;40.30;;;;;;5010350;28;20038;-76
2022/05/22 13:12:13;;;;;;;2.65;0.80;;;21.10;42.30;;;;;;5001900;28;20026;-77
2022/05/22 13:14:43;;;;;;;2.10;0.50;;;21.10;42.60;;;;;;5022300;28;20038;-76
2022/05/22 13:17:13;;;;;;;3.45;0.63;;;21.20;44.40;;;;;;5011767;28;20057;-78
2022/05/22 13:19:56;;;;;;;3.63;0.57;;;21.20;44.00;;;;;;5015260;28;20045;-77
2022/05/22 13:22:41;;;;;;;2.60;0.50;;;21.30;45.30;;;;;;5010369;28;20025;-77
2022/05/22 13:25:25;;;;;;;1.75;0.57;;;21.40;44.20;;;;;;5010449;28;20032;-75
2022/05/22 13:27:51;;;;;;;3.42;0.70;;;21.50;41.80;;;;;;4991562;28;20156;-75
2022/05/22 13:30:24;;;;;;;2.15;0.52;;;21.40;43.50;;;;;;5013668;28;20033;-78